Maxwell AFB, AL

5:15 AM CDT on July 27, 2017 (GMT -0500)
Maxwell Air Force Base

Weather History for KMXF - January, 2013

Change the Weather History Date:

Monday, January 14, 2013

  Actual Average Record
Temperature  
Mean Temperature 58 °F -  
Max Temperature 68 °F 56 °F 77 °F (2007)
Min Temperature 47 °F 36 °F 18 °F (2011)
Degree Days  
Heating Degree Days 8    
Growing Degree Days 8 (Base 50)    
Moisture  
Dew Point 55 °F    
Average Humidity 96    
Maximum Humidity 100    
Minimum Humidity 87    
Precipitation  
Precipitation 0.33 in - - ()
Sea Level Pressure  
Sea Level Pressure 30.09 in    
Wind  
Wind Speed 6 mph (WNW)    
Max Wind Speed 13 mph    
Max Gust Speed -    
Visibility 7 miles    
Events Fog , Rain    
Averages and records for this station are not official NWS values.
T = Trace of Precipitation, MM = Missing Value Source: NWS Daily Summary

Daily Weather History Graph

Daily Weather History Graph

Search for Another Location

Airport or City:

Trip Planner

Search our weather history database for the weather conditions in past years. The results will help you decide how hot, cold, wet, or windy it might be!

Date:

Astronomy

Jan. 14, 2013 Rise Set
Actual Time 6:47 AM CST 5:02 PM CST
Civil Twilight 6:20 AM CST 5:28 PM CST
Nautical Twilight 5:50 AM CST 5:59 PM CST
Astronomical Twilight 5:20 AM CST 6:28 PM CST
Moon 8:33 AM CST (1/14) 8:31 PM CST (1/14)
Length of Visible Light 11h 08m
Length of Day
10h 15m
Waxing Crescent, 11% of the Moon is Illuminated
Jan 14
Waxing Crescent
Jan 18
First Quarter
Jan 26
Full
Feb 3
Last Quarter
Feb 10
New

Hourly Weather History & Observations

Time (CST) Temp. Dew Point Humidity Pressure Visibility Wind Dir Wind Speed Gust Speed Precip Events Conditions
12:55 AM 68.4 °F 67.6 °F 98% 30.01 in 5.0 mi SSE 6.9 mph - 0.10 in Rain Light Rain
1:32 AM 68.0 °F 68.0 °F 100% 30.00 in 2.5 mi SE 11.5 mph - N/A Rain Heavy Rain
1:36 AM 68.0 °F 68.0 °F 100% 30.00 in 2.5 mi SE 11.5 mph - N/A Rain Heavy Rain
1:40 AM 68.0 °F 68.0 °F 100% 29.99 in 3.0 mi ESE 12.7 mph - N/A Rain Light Rain
1:46 AM 68.0 °F 68.0 °F 100% 30.00 in 7.0 mi SE 11.5 mph - N/A Rain Light Rain
1:55 AM 68.5 °F 68.0 °F 98% 30.00 in 10.0 mi ESE 9.2 mph - 0.16 in   Light Drizzle
1:58 AM 68.0 °F 68.0 °F 100% 30.01 in 10.0 mi South 12.7 mph - N/A   Light Drizzle
2:03 AM 68.0 °F 68.0 °F 100% 30.01 in 8.0 mi Variable 3.5 mph - N/A Rain Light Rain
2:07 AM 68.0 °F 68.0 °F 100% 30.01 in 6.0 mi SSW 6.9 mph - N/A Rain Light Rain
2:14 AM 68.0 °F 68.0 °F 100% 30.01 in 5.0 mi SW 4.6 mph - N/A Rain Light Rain
2:16 AM 68.0 °F 68.0 °F 100% 30.01 in 5.0 mi SSW 4.6 mph - N/A Rain Light Rain
2:28 AM 68.0 °F 68.0 °F 100% 30.01 in 3.0 mi SW 5.8 mph - N/A Rain Rain
2:55 AM 63.5 °F 62.8 °F 97% 30.02 in 9.0 mi West 4.6 mph - 0.06 in   Light Drizzle
2:58 AM 62.6 °F 62.6 °F 100% 30.02 in 10.0 mi Variable 4.6 mph - N/A   Overcast
3:06 AM 62.6 °F 62.6 °F 100% 30.03 in 10.0 mi Variable 3.5 mph - N/A   Overcast
3:12 AM 62.6 °F 62.6 °F 100% 30.03 in 10.0 mi WNW 4.6 mph - N/A   Overcast
3:45 AM 60.8 °F 59.0 °F 94% 30.04 in 10.0 mi WNW 8.1 mph - N/A   Overcast
3:55 AM 60.3 °F 59.2 °F 96% 30.05 in 10.0 mi West 3.5 mph - 0.00 in   Overcast
4:00 AM 60.8 °F 59.0 °F 94% 30.04 in 10.0 mi Variable 3.5 mph - N/A   Overcast
4:07 AM 60.8 °F 59.0 °F 94% 30.05 in 10.0 mi West 6.9 mph - N/A   Overcast
4:47 AM 57.2 °F 55.4 °F 94% 30.06 in 10.0 mi NW 6.9 mph - N/A   Overcast
4:55 AM 56.5 °F 55.0 °F 95% 30.05 in 10.0 mi NW 5.8 mph - N/A   Overcast
5:28 AM 55.4 °F 53.6 °F 94% 30.07 in 10.0 mi WNW 4.6 mph - N/A   Overcast
5:55 AM 56.1 °F 54.5 °F 94% 30.09 in 10.0 mi West 4.6 mph - N/A   Overcast
6:02 AM 55.4 °F 53.6 °F 94% 30.09 in 10.0 mi West 5.8 mph - N/A Rain Light Rain
6:10 AM 55.4 °F 53.6 °F 94% 30.08 in 9.0 mi West 3.5 mph - N/A Rain Light Rain
6:24 AM 55.4 °F 53.6 °F 94% 30.09 in 9.0 mi Calm Calm - N/A   Light Drizzle
6:35 AM 55.4 °F 53.6 °F 94% 30.09 in 9.0 mi West 3.5 mph - N/A Rain Light Rain
6:38 AM 55.4 °F 53.6 °F 94% 30.09 in 10.0 mi West 3.5 mph - N/A   Overcast
6:42 AM 55.4 °F 53.6 °F 94% 30.09 in 10.0 mi Calm Calm - N/A Rain Light Rain
6:49 AM 55.4 °F 53.6 °F 94% 30.10 in 10.0 mi WSW 4.6 mph - N/A Rain Light Rain
6:52 AM 55.4 °F 53.6 °F 94% 30.10 in 10.0 mi WSW 3.5 mph - N/A   Overcast
6:55 AM 55.0 °F 54.0 °F 96% 30.10 in 10.0 mi WSW 3.5 mph - 0.01 in   Overcast
7:06 AM 55.4 °F 53.6 °F 94% 30.12 in 10.0 mi West 5.8 mph - N/A   Overcast
7:17 AM 53.6 °F 53.6 °F 100% 30.12 in 10.0 mi West 6.9 mph - N/A   Overcast
7:27 AM 53.6 °F 53.6 °F 100% 30.12 in 10.0 mi West 5.8 mph - N/A   Overcast
7:30 AM 53.6 °F 53.6 °F 100% 30.12 in 9.0 mi WSW 5.8 mph - N/A Rain Light Rain
7:42 AM 53.6 °F 51.8 °F 94% 30.14 in 6.0 mi West 5.8 mph - N/A   Overcast
7:51 AM 53.6 °F 51.8 °F 94% 30.14 in 5.0 mi West 5.8 mph - N/A   Light Drizzle
7:55 AM 53.1 °F 52.0 °F 96% 30.13 in 5.0 mi Variable 3.5 mph - 0.00 in   Light Drizzle
8:00 AM 53.6 °F 51.8 °F 94% 30.13 in 5.0 mi WNW 4.6 mph - N/A   Overcast
8:55 AM 53.1 °F 52.3 °F 97% 30.16 in 9.0 mi WSW 4.6 mph - 0.00 in   Overcast
8:58 AM 53.6 °F 51.8 °F 94% 30.16 in 9.0 mi West 4.6 mph - N/A   Overcast
9:19 AM 53.6 °F 51.8 °F 94% 30.15 in 7.0 mi Calm Calm - N/A   Overcast
9:40 AM 53.6 °F 53.6 °F 100% 30.15 in 10.0 mi NE 3.5 mph - N/A   Overcast
9:55 AM 54.3 °F 52.7 °F 94% 30.14 in 10.0 mi Calm Calm - N/A   Overcast
10:55 AM 54.7 °F 52.9 °F 94% 30.12 in 10.0 mi NNW 4.6 mph - N/A   Overcast
11:35 AM 55.4 °F 51.8 °F 88% 30.09 in 10.0 mi Calm Calm - N/A   Overcast
11:41 AM 55.4 °F 53.6 °F 94% 30.09 in 10.0 mi NNE 3.5 mph - N/A   Overcast
11:55 AM 54.9 °F 52.7 °F 92% 30.08 in 10.0 mi Calm Calm - N/A   Overcast
12:55 PM 55.8 °F 53.8 °F 93% 30.08 in 9.0 mi Calm Calm - N/A   Overcast
12:59 PM 55.4 °F 53.6 °F 94% 30.08 in 9.0 mi Calm Calm - N/A   Overcast
1:53 PM 55.4 °F 53.6 °F 94% 30.07 in 10.0 mi Calm Calm - N/A   Overcast
1:55 PM 55.6 °F 54.1 °F 95% 30.07 in 10.0 mi Calm Calm - N/A   Overcast
2:38 PM 55.4 °F 55.4 °F 100% 30.08 in 10.0 mi Calm Calm - N/A   Overcast
2:55 PM 56.3 °F 54.9 °F 95% 30.09 in 10.0 mi Calm Calm - N/A   Overcast
3:24 PM 57.2 °F 55.4 °F 94% 30.10 in 3.0 mi NW 4.6 mph - N/A   Overcast
3:36 PM 57.2 °F 55.4 °F 94% 30.11 in 2.0 mi West 4.6 mph - N/A   Overcast
3:40 PM 57.2 °F 55.4 °F 94% 30.11 in 0.5 mi West 5.8 mph - N/A Fog Fog
3:47 PM 57.2 °F 55.4 °F 94% 30.12 in 0.2 mi West 4.6 mph - N/A Fog Fog
3:53 PM 57.2 °F 55.4 °F 94% 30.12 in 0.5 mi WNW 6.9 mph - N/A Fog Fog
3:55 PM 56.7 °F 55.8 °F 97% 30.12 in 0.5 mi WNW 5.8 mph - N/A Fog Fog
4:44 PM 55.4 °F 55.4 °F 100% 30.13 in 0.8 mi NW 6.9 mph - N/A   Overcast
4:55 PM 55.6 °F 54.7 °F 97% 30.13 in 0.5 mi NW 6.9 mph - N/A Fog Fog
5:06 PM 55.4 °F 53.6 °F 94% 30.14 in 1.0 mi WNW 5.8 mph - N/A   Overcast
5:55 PM 54.1 °F 53.1 °F 96% 30.16 in 2.0 mi WNW 8.1 mph - N/A   Overcast
6:55 PM 52.0 °F 50.9 °F 96% 30.15 in 2.0 mi NW 10.4 mph - N/A   Overcast
7:21 PM 50.0 °F 50.0 °F 100% 30.16 in 4.0 mi NNW 9.2 mph - N/A   Overcast
7:55 PM 48.4 °F 47.1 °F 95% 30.17 in 1.0 mi NW 10.4 mph - N/A   Light Drizzle
8:15 PM 48.2 °F 46.4 °F 93% 30.17 in 1.0 mi NNW 6.9 mph - N/A Rain Light Rain
8:25 PM 48.2 °F 46.4 °F 93% 30.17 in 1.0 mi NNW 6.9 mph - N/A   Overcast
8:55 PM 47.1 °F 45.9 °F 95% 30.15 in 2.0 mi North 5.8 mph - 0.00 in   Overcast
9:42 PM 48.2 °F 44.6 °F 87% 30.15 in 7.0 mi North 5.8 mph - N/A   Overcast
9:55 PM 47.3 °F 45.1 °F 92% 30.14 in 10.0 mi NNE 4.6 mph - N/A   Overcast
10:55 PM 47.7 °F 45.9 °F 93% 30.12 in 10.0 mi NNE 3.5 mph - N/A   Overcast
10:58 PM 48.2 °F 46.4 °F 93% 30.12 in 10.0 mi NNE 4.6 mph - N/A   Overcast
11:07 PM 48.2 °F 46.4 °F 93% 30.13 in 10.0 mi ENE 3.5 mph - N/A   Overcast
11:12 PM 48.2 °F 46.4 °F 93% 30.12 in 10.0 mi ENE 3.5 mph - N/A   Overcast
11:19 PM 48.2 °F 46.4 °F 93% 30.12 in 10.0 mi ENE 3.5 mph - N/A   Overcast
11:55 PM 48.4 °F 46.8 °F 94% 30.11 in 10.0 mi East 3.5 mph - N/A   Overcast